sensor_id;sensor_type;location;lat;lon;timestamp;pressure;altitude;pressure_sealevel;temperature
59339;BMP280;45117;50.960;5.500;2023-07-31T00:00:57;100324.16;;;16.63
59339;BMP280;45117;50.960;5.500;2023-07-31T00:03:24;100312.41;;;16.57
59339;BMP280;45117;50.960;5.500;2023-07-31T00:05:51;100270.00;;;16.23
59339;BMP280;45117;50.960;5.500;2023-07-31T00:08:18;100322.47;;;16.57
59339;BMP280;45117;50.960;5.500;2023-07-31T00:10:46;100273.91;;;16.22
59339;BMP280;45117;50.960;5.500;2023-07-31T00:13:12;100252.34;;;16.00
59339;BMP280;45117;50.960;5.500;2023-07-31T00:15:39;100319.44;;;16.45
59339;BMP280;45117;50.960;5.500;2023-07-31T00:18:05;100291.88;;;16.38
59339;BMP280;45117;50.960;5.500;2023-07-31T00:20:32;100302.09;;;16.43
59339;BMP280;45117;50.960;5.500;2023-07-31T00:22:59;100285.53;;;16.32
59339;BMP280;45117;50.960;5.500;2023-07-31T00:25:34;100291.25;;;16.34
59339;BMP280;45117;50.960;5.500;2023-07-31T00:28:07;100245.28;;;16.03
59339;BMP280;45117;50.960;5.500;2023-07-31T00:30:34;100298.69;;;16.42
59339;BMP280;45117;50.960;5.500;2023-07-31T00:33:00;100256.78;;;16.16
59339;BMP280;45117;50.960;5.500;2023-07-31T00:35:27;100267.47;;;16.19
59339;BMP280;45117;50.960;5.500;2023-07-31T00:37:54;100305.91;;;16.36
59339;BMP280;45117;50.960;5.500;2023-07-31T00:40:20;100285.53;;;16.32
59339;BMP280;45117;50.960;5.500;2023-07-31T00:42:47;100286.44;;;16.29
59339;BMP280;45117;50.960;5.500;2023-07-31T00:45:15;100289.75;;;16.33
59339;BMP280;45117;50.960;5.500;2023-07-31T00:47:42;100299.69;;;16.36
59339;BMP280;45117;50.960;5.500;2023-07-31T00:50:16;100270.44;;;16.21
59339;BMP280;45117;50.960;5.500;2023-07-31T00:53:20;100299.53;;;16.39
59339;BMP280;45117;50.960;5.500;2023-07-31T00:55:52;100252.09;;;16.16
59339;BMP280;45117;50.960;5.500;2023-07-31T00:58:19;100190.59;;;15.77
59339;BMP280;45117;50.960;5.500;2023-07-31T01:00:47;100241.25;;;16.16
59339;BMP280;45117;50.960;5.500;2023-07-31T01:03:15;100281.66;;;16.42
59339;BMP280;45117;50.960;5.500;2023-07-31T01:05:49;100236.88;;;16.19
59339;BMP280;45117;50.960;5.500;2023-07-31T01:08:24;100275.94;;;16.49
59339;BMP280;45117;50.960;5.500;2023-07-31T01:11:00;100268.25;;;16.38
59339;BMP280;45117;50.960;5.500;2023-07-31T01:13:28;100278.97;;;16.51
59339;BMP280;45117;50.960;5.500;2023-07-31T01:15:56;100262.84;;;16.47
59339;BMP280;45117;50.960;5.500;2023-07-31T01:18:23;100260.13;;;16.47
59339;BMP280;45117;50.960;5.500;2023-07-31T01:20:54;100266.00;;;16.55
59339;BMP280;45117;50.960;5.500;2023-07-31T01:23:50;100270.06;;;16.60
59339;BMP280;45117;50.960;5.500;2023-07-31T01:26:21;100269.66;;;16.61
59339;BMP280;45117;50.960;5.500;2023-07-31T01:28:55;100209.06;;;16.18
59339;BMP280;45117;50.960;5.500;2023-07-31T01:31:24;100244.34;;;16.46
59339;BMP280;45117;50.960;5.500;2023-07-31T01:34:09;100196.72;;;16.17
59339;BMP280;45117;50.960;5.500;2023-07-31T01:36:39;100247.63;;;16.59
59339;BMP280;45117;50.960;5.500;2023-07-31T01:39:05;100201.56;;;16.32
59339;BMP280;45117;50.960;5.500;2023-07-31T01:41:33;100207.44;;;16.30
59339;BMP280;45117;50.960;5.500;2023-07-31T01:44:00;100238.47;;;16.57
59339;BMP280;45117;50.960;5.500;2023-07-31T01:46:27;100211.97;;;16.42
59339;BMP280;45117;50.960;5.500;2023-07-31T01:48:53;100195.38;;;16.31
59339;BMP280;45117;50.960;5.500;2023-07-31T01:51:20;100254.28;;;16.76
59339;BMP280;45117;50.960;5.500;2023-07-31T01:53:46;100246.44;;;16.69
59339;BMP280;45117;50.960;5.500;2023-07-31T01:56:14;100245.56;;;16.72
59339;BMP280;45117;50.960;5.500;2023-07-31T01:58:42;100241.31;;;16.80
59339;BMP280;45117;50.960;5.500;2023-07-31T02:01:09;100229.44;;;16.69
59339;BMP280;45117;50.960;5.500;2023-07-31T02:03:35;100181.69;;;16.44
59339;BMP280;45117;50.960;5.500;2023-07-31T02:06:04;100225.22;;;16.77
59339;BMP280;45117;50.960;5.500;2023-07-31T02:08:31;100218.75;;;16.74
59339;BMP280;45117;50.960;5.500;2023-07-31T02:10:57;100199.19;;;16.61
59339;BMP280;45117;50.960;5.500;2023-07-31T02:13:24;100241.03;;;16.88
59339;BMP280;45117;50.960;5.500;2023-07-31T02:15:52;100234.84;;;16.87
59339;BMP280;45117;50.960;5.500;2023-07-31T02:18:19;100230.63;;;16.86
59339;BMP280;45117;50.960;5.500;2023-07-31T02:20:49;100200.06;;;16.67
59339;BMP280;45117;50.960;5.500;2023-07-31T02:23:16;100202.59;;;16.80
59339;BMP280;45117;50.960;5.500;2023-07-31T02:25:42;100180.66;;;16.69
59339;BMP280;45117;50.960;5.500;2023-07-31T02:28:09;100213.59;;;16.95
59339;BMP280;45117;50.960;5.500;2023-07-31T02:30:36;100219.19;;;16.91
59339;BMP280;45117;50.960;5.500;2023-07-31T02:33:14;100166.66;;;16.61
59339;BMP280;45117;50.960;5.500;2023-07-31T02:35:41;100201.25;;;16.84
59339;BMP280;45117;50.960;5.500;2023-07-31T02:38:07;100199.00;;;16.92
59339;BMP280;45117;50.960;5.500;2023-07-31T02:40:34;100129.19;;;16.41
59339;BMP280;45117;50.960;5.500;2023-07-31T02:43:01;100122.41;;;16.37
59339;BMP280;45117;50.960;5.500;2023-07-31T02:45:27;100195.06;;;16.93
59339;BMP280;45117;50.960;5.500;2023-07-31T02:47:54;100162.88;;;16.68
59339;BMP280;45117;50.960;5.500;2023-07-31T02:50:22;100186.97;;;16.84
59339;BMP280;45117;50.960;5.500;2023-07-31T02:52:48;100155.19;;;16.66
59339;BMP280;45117;50.960;5.500;2023-07-31T02:55:15;100180.03;;;16.83
59339;BMP280;45117;50.960;5.500;2023-07-31T02:57:42;100166.50;;;16.74
59339;BMP280;45117;50.960;5.500;2023-07-31T03:00:08;100169.31;;;16.79
59339;BMP280;45117;50.960;5.500;2023-07-31T03:02:35;100169.03;;;16.87
59339;BMP280;45117;50.960;5.500;2023-07-31T03:05:02;100145.53;;;16.74
59339;BMP280;45117;50.960;5.500;2023-07-31T03:07:30;100161.94;;;16.89
59339;BMP280;45117;50.960;5.500;2023-07-31T03:09:56;100161.19;;;16.89
59339;BMP280;45117;50.960;5.500;2023-07-31T03:12:23;100170.22;;;16.95
59339;BMP280;45117;50.960;5.500;2023-07-31T03:14:49;100137.28;;;16.69
59339;BMP280;45117;50.960;5.500;2023-07-31T03:17:16;100139.41;;;16.74
59339;BMP280;45117;50.960;5.500;2023-07-31T03:19:43;100145.09;;;16.76
59339;BMP280;45117;50.960;5.500;2023-07-31T03:22:09;100175.31;;;17.02
59339;BMP280;45117;50.960;5.500;2023-07-31T03:24:37;100153.34;;;16.91
59339;BMP280;45117;50.960;5.500;2023-07-31T03:27:05;100172.31;;;17.00
59339;BMP280;45117;50.960;5.500;2023-07-31T03:29:31;100158.16;;;16.96
59339;BMP280;45117;50.960;5.500;2023-07-31T03:31:58;100147.16;;;16.90
59339;BMP280;45117;50.960;5.500;2023-07-31T03:34:25;100145.81;;;16.85
59339;BMP280;45117;50.960;5.500;2023-07-31T03:36:51;100089.09;;;16.54
59339;BMP280;45117;50.960;5.500;2023-07-31T03:39:18;100156.78;;;17.00
59339;BMP280;45117;50.960;5.500;2023-07-31T03:41:46;100134.84;;;16.80
59339;BMP280;45117;50.960;5.500;2023-07-31T03:44:12;100122.34;;;16.73
59339;BMP280;45117;50.960;5.500;2023-07-31T03:46:39;100157.69;;;16.97
59339;BMP280;45117;50.960;5.500;2023-07-31T03:49:06;100154.81;;;17.01
59339;BMP280;45117;50.960;5.500;2023-07-31T03:51:32;100125.94;;;16.89
59339;BMP280;45117;50.960;5.500;2023-07-31T03:53:59;100142.75;;;17.02
59339;BMP280;45117;50.960;5.500;2023-07-31T03:56:26;100136.00;;;16.97
59339;BMP280;45117;50.960;5.500;2023-07-31T03:58:54;100142.75;;;17.02
59339;BMP280;45117;50.960;5.500;2023-07-31T04:01:20;100133.13;;;17.01
59339;BMP280;45117;50.960;5.500;2023-07-31T04:03:47;100135.69;;;17.04
59339;BMP280;45117;50.960;5.500;2023-07-31T04:06:14;100121.69;;;16.97
59339;BMP280;45117;50.960;5.500;2023-07-31T04:08:43;100119.56;;;17.01
59339;BMP280;45117;50.960;5.500;2023-07-31T04:11:10;100108.28;;;16.93
59339;BMP280;45117;50.960;5.500;2023-07-31T04:13:37;100099.44;;;16.83
59339;BMP280;45117;50.960;5.500;2023-07-31T04:16:05;100111.91;;;16.99
59339;BMP280;45117;50.960;5.500;2023-07-31T04:18:32;100058.22;;;16.70
59339;BMP280;45117;50.960;5.500;2023-07-31T04:20:58;100093.34;;;16.98
59339;BMP280;45117;50.960;5.500;2023-07-31T04:23:26;100102.84;;;17.02
59339;BMP280;45117;50.960;5.500;2023-07-31T04:25:56;100093.78;;;17.05
59339;BMP280;45117;50.960;5.500;2023-07-31T04:28:22;100103.75;;;17.08
59339;BMP280;45117;50.960;5.500;2023-07-31T04:30:51;100066.16;;;16.83
59339;BMP280;45117;50.960;5.500;2023-07-31T04:33:19;100097.56;;;17.08
59339;BMP280;45117;50.960;5.500;2023-07-31T04:35:50;100054.25;;;16.80
59339;BMP280;45117;50.960;5.500;2023-07-31T04:38:18;100111.25;;;17.13
59339;BMP280;45117;50.960;5.500;2023-07-31T04:40:45;100096.03;;;17.07
59339;BMP280;45117;50.960;5.500;2023-07-31T04:43:11;100105.06;;;17.13
59339;BMP280;45117;50.960;5.500;2023-07-31T04:45:38;100095.84;;;17.10
59339;BMP280;45117;50.960;5.500;2023-07-31T04:48:04;100091.19;;;17.11
59339;BMP280;45117;50.960;5.500;2023-07-31T04:50:32;100094.22;;;17.13
59339;BMP280;45117;50.960;5.500;2023-07-31T04:52:59;100042.78;;;16.85
59339;BMP280;45117;50.960;5.500;2023-07-31T04:55:25;100050.13;;;16.94
59339;BMP280;45117;50.960;5.500;2023-07-31T04:57:52;100078.88;;;17.10
59339;BMP280;45117;50.960;5.500;2023-07-31T05:00:18;100078.00;;;17.04
59339;BMP280;45117;50.960;5.500;2023-07-31T05:02:45;100076.16;;;17.01
59339;BMP280;45117;50.960;5.500;2023-07-31T05:05:12;100031.09;;;16.70
59339;BMP280;45117;50.960;5.500;2023-07-31T05:07:40;100088.53;;;17.02
59339;BMP280;45117;50.960;5.500;2023-07-31T05:10:07;100080.09;;;17.00
59339;BMP280;45117;50.960;5.500;2023-07-31T05:12:34;100084.78;;;16.99
59339;BMP280;45117;50.960;5.500;2023-07-31T05:15:00;100075.75;;;16.93
59339;BMP280;45117;50.960;5.500;2023-07-31T05:17:27;100073.81;;;16.84
59339;BMP280;45117;50.960;5.500;2023-07-31T05:19:54;100033.84;;;16.61
59339;BMP280;45117;50.960;5.500;2023-07-31T05:22:20;100066.41;;;16.94
59339;BMP280;45117;50.960;5.500;2023-07-31T05:24:48;100052.13;;;16.84
59339;BMP280;45117;50.960;5.500;2023-07-31T05:27:15;100062.06;;;16.88
59339;BMP280;45117;50.960;5.500;2023-07-31T05:29:43;100069.00;;;16.89
59339;BMP280;45117;50.960;5.500;2023-07-31T05:32:10;100038.31;;;16.73
59339;BMP280;45117;50.960;5.500;2023-07-31T05:34:37;100060.88;;;16.89
59339;BMP280;45117;50.960;5.500;2023-07-31T05:37:04;100032.00;;;16.67
59339;BMP280;45117;50.960;5.500;2023-07-31T05:39:31;100072.00;;;16.91
59339;BMP280;45117;50.960;5.500;2023-07-31T05:41:59;100067.94;;;16.86
59339;BMP280;45117;50.960;5.500;2023-07-31T05:44:25;100057.22;;;16.92
59339;BMP280;45117;50.960;5.500;2023-07-31T05:46:52;100071.84;;;16.94
59339;BMP280;45117;50.960;5.500;2023-07-31T05:49:18;100061.31;;;16.87
59339;BMP280;45117;50.960;5.500;2023-07-31T05:51:45;100012.41;;;16.72
59339;BMP280;45117;50.960;5.500;2023-07-31T05:54:12;100028.97;;;16.74
59339;BMP280;45117;50.960;5.500;2023-07-31T05:56:38;100047.94;;;16.83
59339;BMP280;45117;50.960;5.500;2023-07-31T05:59:06;100053.44;;;16.98
59339;BMP280;45117;50.960;5.500;2023-07-31T06:01:33;100050.72;;;16.98
59339;BMP280;45117;50.960;5.500;2023-07-31T06:03:59;100006.88;;;16.67
59339;BMP280;45117;50.960;5.500;2023-07-31T06:06:27;100049.53;;;16.90
59339;BMP280;45117;50.960;5.500;2023-07-31T06:08:53;100053.03;;;16.91
59339;BMP280;45117;50.960;5.500;2023-07-31T06:11:21;100058.72;;;16.93
59339;BMP280;45117;50.960;5.500;2023-07-31T06:13:48;100063.25;;;16.96
59339;BMP280;45117;50.960;5.500;2023-07-31T06:16:16;100059.31;;;16.97
59339;BMP280;45117;50.960;5.500;2023-07-31T06:18:43;100013.34;;;16.60
59339;BMP280;45117;50.960;5.500;2023-07-31T06:21:10;100009.47;;;16.61
59339;BMP280;45117;50.960;5.500;2023-07-31T06:23:37;100052.44;;;16.87
59339;BMP280;45117;50.960;5.500;2023-07-31T06:26:03;100062.81;;;16.88
59339;BMP280;45117;50.960;5.500;2023-07-31T06:28:31;100069.75;;;16.89
59339;BMP280;45117;50.960;5.500;2023-07-31T06:30:58;100067.06;;;16.80
59339;BMP280;45117;50.960;5.500;2023-07-31T06:33:26;100062.38;;;16.80
59339;BMP280;45117;50.960;5.500;2023-07-31T06:35:52;100063.00;;;16.75
59339;BMP280;45117;50.960;5.500;2023-07-31T06:38:22;100055.94;;;16.69
59339;BMP280;45117;50.960;5.500;2023-07-31T06:40:49;99997.34;;;16.29
59339;BMP280;45117;50.960;5.500;2023-07-31T06:43:15;100048.69;;;16.75
59339;BMP280;45117;50.960;5.500;2023-07-31T06:45:42;100044.78;;;16.76
59339;BMP280;45117;50.960;5.500;2023-07-31T06:48:09;100028.22;;;16.65
59339;BMP280;45117;50.960;5.500;2023-07-31T06:50:37;100040.09;;;16.76
59339;BMP280;45117;50.960;5.500;2023-07-31T06:53:03;100019.97;;;16.59
59339;BMP280;45117;50.960;5.500;2023-07-31T06:55:30;100017.31;;;16.50
59339;BMP280;45117;50.960;5.500;2023-07-31T06:57:57;100041.94;;;16.70
59339;BMP280;45117;50.960;5.500;2023-07-31T07:00:24;100057.88;;;16.77
59339;BMP280;45117;50.960;5.500;2023-07-31T07:02:50;100042.53;;;16.74
59339;BMP280;45117;50.960;5.500;2023-07-31T07:05:18;100035.59;;;16.73
59339;BMP280;45117;50.960;5.500;2023-07-31T07:07:46;100029.22;;;16.85
59339;BMP280;45117;50.960;5.500;2023-07-31T07:10:12;100047.63;;;16.81
59339;BMP280;45117;50.960;5.500;2023-07-31T07:12:39;100027.63;;;16.79
59339;BMP280;45117;50.960;5.500;2023-07-31T07:15:06;99993.50;;;16.63
59339;BMP280;45117;50.960;5.500;2023-07-31T07:17:33;99994.53;;;16.66
59339;BMP280;45117;50.960;5.500;2023-07-31T07:20:00;100026.66;;;16.91
59339;BMP280;45117;50.960;5.500;2023-07-31T07:22:28;100018.59;;;17.06
59339;BMP280;45117;50.960;5.500;2023-07-31T07:24:56;100019.47;;;17.12
59339;BMP280;45117;50.960;5.500;2023-07-31T07:27:23;99988.94;;;17.02
59339;BMP280;45117;50.960;5.500;2023-07-31T07:29:50;100009.81;;;17.20
59339;BMP280;45117;50.960;5.500;2023-07-31T07:32:21;99987.28;;;17.05
59339;BMP280;45117;50.960;5.500;2023-07-31T07:34:51;99931.03;;;16.81
59339;BMP280;45117;50.960;5.500;2023-07-31T07:37:18;99996.31;;;17.26
59339;BMP280;45117;50.960;5.500;2023-07-31T07:39:44;99970.38;;;17.10
59339;BMP280;45117;50.960;5.500;2023-07-31T07:42:12;99970.66;;;17.12
59339;BMP280;45117;50.960;5.500;2023-07-31T07:44:39;100001.66;;;17.20
59339;BMP280;45117;50.960;5.500;2023-07-31T07:47:05;99994.34;;;17.26
59339;BMP280;45117;50.960;5.500;2023-07-31T07:49:32;99972.25;;;16.95
59339;BMP280;45117;50.960;5.500;2023-07-31T07:51:59;99964.94;;;16.77
59339;BMP280;45117;50.960;5.500;2023-07-31T07:54:26;100016.38;;;17.04
59339;BMP280;45117;50.960;5.500;2023-07-31T07:56:52;100012.41;;;17.05
59339;BMP280;45117;50.960;5.500;2023-07-31T07:59:20;100009.44;;;17.03
59339;BMP280;45117;50.960;5.500;2023-07-31T08:01:48;99980.72;;;16.88
59339;BMP280;45117;50.960;5.500;2023-07-31T08:04:14;100007.47;;;17.04
59339;BMP280;45117;50.960;5.500;2023-07-31T08:06:41;99967.81;;;16.82
59339;BMP280;45117;50.960;5.500;2023-07-31T08:09:08;99952.81;;;16.96
59339;BMP280;45117;50.960;5.500;2023-07-31T08:11:34;99972.16;;;17.13
59339;BMP280;45117;50.960;5.500;2023-07-31T08:14:01;99991.50;;;17.30
59339;BMP280;45117;50.960;5.500;2023-07-31T08:16:29;99954.19;;;16.92
59339;BMP280;45117;50.960;5.500;2023-07-31T08:18:56;99944.56;;;16.91
59339;BMP280;45117;50.960;5.500;2023-07-31T08:21:23;99931.25;;;16.78
59339;BMP280;45117;50.960;5.500;2023-07-31T08:23:49;99933.31;;;16.83
59339;BMP280;45117;50.960;5.500;2023-07-31T08:26:16;99989.00;;;17.17
59339;BMP280;45117;50.960;5.500;2023-07-31T08:28:44;99965.16;;;16.97
59339;BMP280;45117;50.960;5.500;2023-07-31T08:31:11;99994.59;;;17.13
59339;BMP280;45117;50.960;5.500;2023-07-31T08:33:39;99989.06;;;17.08
59339;BMP280;45117;50.960;5.500;2023-07-31T08:36:06;100009.03;;;17.20
59339;BMP280;45117;50.960;5.500;2023-07-31T08:38:33;99966.47;;;17.02
59339;BMP280;45117;50.960;5.500;2023-07-31T08:41:00;99962.16;;;16.95
59339;BMP280;45117;50.960;5.500;2023-07-31T08:43:27;99990.31;;;17.22
59339;BMP280;45117;50.960;5.500;2023-07-31T08:45:55;99974.53;;;17.20
59339;BMP280;45117;50.960;5.500;2023-07-31T08:48:23;99990.69;;;17.38
59339;BMP280;45117;50.960;5.500;2023-07-31T08:50:51;99982.59;;;17.29
59339;BMP280;45117;50.960;5.500;2023-07-31T08:53:18;99972.00;;;17.31
59339;BMP280;45117;50.960;5.500;2023-07-31T08:55:46;99988.19;;;17.50
59339;BMP280;45117;50.960;5.500;2023-07-31T08:58:13;99998.56;;;17.51
59339;BMP280;45117;50.960;5.500;2023-07-31T09:00:40;99944.94;;;17.22
59339;BMP280;45117;50.960;5.500;2023-07-31T09:03:11;99962.63;;;17.17
59339;BMP280;45117;50.960;5.500;2023-07-31T09:05:46;100003.13;;;17.45
59339;BMP280;45117;50.960;5.500;2023-07-31T09:08:17;99976.75;;;17.45
59339;BMP280;45117;50.960;5.500;2023-07-31T09:10:45;99956.81;;;17.48
59339;BMP280;45117;50.960;5.500;2023-07-31T09:13:12;99984.19;;;17.60
59339;BMP280;45117;50.960;5.500;2023-07-31T09:15:39;99997.41;;;17.67
59339;BMP280;45117;50.960;5.500;2023-07-31T09:18:07;99899.56;;;17.08
59339;BMP280;45117;50.960;5.500;2023-07-31T09:21:00;99913.19;;;17.37
59339;BMP280;45117;50.960;5.500;2023-07-31T09:23:46;99900.69;;;17.16
59339;BMP280;45117;50.960;5.500;2023-07-31T09:26:34;99958.34;;;17.50
59339;BMP280;45117;50.960;5.500;2023-07-31T09:29:03;99933.94;;;17.40
59339;BMP280;45117;50.960;5.500;2023-07-31T09:31:42;99914.13;;;17.49
59339;BMP280;45117;50.960;5.500;2023-07-31T09:34:10;99912.44;;;17.37
59339;BMP280;45117;50.960;5.500;2023-07-31T09:36:41;99990.56;;;17.86
59339;BMP280;45117;50.960;5.500;2023-07-31T09:39:11;99981.44;;;17.84
59339;BMP280;45117;50.960;5.500;2023-07-31T09:41:38;99976.91;;;17.95
59339;BMP280;45117;50.960;5.500;2023-07-31T09:44:10;99993.47;;;17.83
59339;BMP280;45117;50.960;5.500;2023-07-31T09:46:37;99977.00;;;17.86
59339;BMP280;45117;50.960;5.500;2023-07-31T09:49:15;99927.72;;;17.49
59339;BMP280;45117;50.960;5.500;2023-07-31T09:51:55;99960.13;;;17.82
59339;BMP280;45117;50.960;5.500;2023-07-31T09:54:23;99895.38;;;17.36
59339;BMP280;45117;50.960;5.500;2023-07-31T09:56:56;99925.94;;;17.61
59339;BMP280;45117;50.960;5.500;2023-07-31T09:59:25;99916.97;;;17.55
59339;BMP280;45117;50.960;5.500;2023-07-31T10:04:27;99949.75;;;17.95
59339;BMP280;45117;50.960;5.500;2023-07-31T10:06:56;99948.16;;;18.03
59339;BMP280;45117;50.960;5.500;2023-07-31T10:09:31;99895.16;;;17.64
59339;BMP280;45117;50.960;5.500;2023-07-31T10:12:05;99866.72;;;17.59
59339;BMP280;45117;50.960;5.500;2023-07-31T10:14:59;99887.94;;;17.90
59339;BMP280;45117;50.960;5.500;2023-07-31T10:17:26;99894.88;;;17.91
59339;BMP280;45117;50.960;5.500;2023-07-31T10:20:08;99886.06;;;17.82
59339;BMP280;45117;50.960;5.500;2023-07-31T10:22:38;99925.50;;;18.21
59339;BMP280;45117;50.960;5.500;2023-07-31T10:25:19;99888.50;;;17.94
59339;BMP280;45117;50.960;5.500;2023-07-31T10:27:48;99964.78;;;18.55
59339;BMP280;45117;50.960;5.500;2023-07-31T10:30:27;99876.72;;;17.97
59339;BMP280;45117;50.960;5.500;2023-07-31T10:33:05;99921.88;;;18.45
59339;BMP280;45117;50.960;5.500;2023-07-31T10:35:33;99868.00;;;18.08
59339;BMP280;45117;50.960;5.500;2023-07-31T10:38:10;99873.47;;;18.14
59339;BMP280;45117;50.960;5.500;2023-07-31T10:40:42;99874.06;;;18.18
59339;BMP280;45117;50.960;5.500;2023-07-31T10:43:23;99924.50;;;18.39
59339;BMP280;45117;50.960;5.500;2023-07-31T10:45:55;99861.31;;;18.09
59339;BMP280;45117;50.960;5.500;2023-07-31T10:48:24;99870.50;;;18.12
59339;BMP280;45117;50.960;5.500;2023-07-31T10:50:52;99932.38;;;18.37
59339;BMP280;45117;50.960;5.500;2023-07-31T10:53:25;99909.81;;;18.31
59339;BMP280;45117;50.960;5.500;2023-07-31T10:55:52;99943.53;;;18.74
59339;BMP280;45117;50.960;5.500;2023-07-31T10:58:22;99878.31;;;18.39
59339;BMP280;45117;50.960;5.500;2023-07-31T11:00:49;99896.09;;;18.40
59339;BMP280;45117;50.960;5.500;2023-07-31T11:03:19;99944.38;;;18.65
59339;BMP280;45117;50.960;5.500;2023-07-31T11:05:51;99876.28;;;18.19
59339;BMP280;45117;50.960;5.500;2023-07-31T11:08:21;99893.44;;;18.25
59339;BMP280;45117;50.960;5.500;2023-07-31T11:11:05;99896.22;;;18.31
59339;BMP280;45117;50.960;5.500;2023-07-31T11:13:33;99913.81;;;18.50
59339;BMP280;45117;50.960;5.500;2023-07-31T11:16:00;99883.19;;;18.35
59339;BMP280;45117;50.960;5.500;2023-07-31T11:18:28;99936.06;;;18.69
59339;BMP280;45117;50.960;5.500;2023-07-31T11:20:56;99915.91;;;18.61
59339;BMP280;45117;50.960;5.500;2023-07-31T11:23:23;99939.13;;;18.77
59339;BMP280;45117;50.960;5.500;2023-07-31T11:25:50;99880.22;;;18.53
59339;BMP280;45117;50.960;5.500;2023-07-31T11:28:24;99872.34;;;18.55
59339;BMP280;45117;50.960;5.500;2023-07-31T11:30:55;99873.09;;;18.76
59339;BMP280;45117;50.960;5.500;2023-07-31T11:33:24;99918.84;;;19.18
59339;BMP280;45117;50.960;5.500;2023-07-31T11:35:55;99889.28;;;19.06
59339;BMP280;45117;50.960;5.500;2023-07-31T11:38:32;99894.72;;;19.31
59339;BMP280;45117;50.960;5.500;2023-07-31T11:41:06;99906.88;;;19.62
59339;BMP280;45117;50.960;5.500;2023-07-31T11:43:34;99926.25;;;19.64
59339;BMP280;45117;50.960;5.500;2023-07-31T11:46:02;99877.81;;;19.48
59339;BMP280;45117;50.960;5.500;2023-07-31T11:48:30;99899.19;;;19.55
59339;BMP280;45117;50.960;5.500;2023-07-31T11:51:01;99895.00;;;19.33
59339;BMP280;45117;50.960;5.500;2023-07-31T11:53:31;99922.47;;;19.56
59339;BMP280;45117;50.960;5.500;2023-07-31T11:56:30;99858.59;;;19.05
59339;BMP280;45117;50.960;5.500;2023-07-31T11:59:07;99857.47;;;19.17
59339;BMP280;45117;50.960;5.500;2023-07-31T12:01:34;99891.66;;;19.76
59339;BMP280;45117;50.960;5.500;2023-07-31T12:04:01;99895.13;;;20.13
59339;BMP280;45117;50.960;5.500;2023-07-31T12:06:39;99824.78;;;19.75
59339;BMP280;45117;50.960;5.500;2023-07-31T12:09:06;99858.22;;;20.12
59339;BMP280;45117;50.960;5.500;2023-07-31T12:11:42;99900.69;;;20.24
59339;BMP280;45117;50.960;5.500;2023-07-31T12:14:22;99886.09;;;20.33
59339;BMP280;45117;50.960;5.500;2023-07-31T12:16:55;99819.44;;;19.91
59339;BMP280;45117;50.960;5.500;2023-07-31T12:19:22;99843.34;;;20.08
59339;BMP280;45117;50.960;5.500;2023-07-31T12:21:51;99868.19;;;20.21
59339;BMP280;45117;50.960;5.500;2023-07-31T12:24:19;99829.34;;;19.89
59339;BMP280;45117;50.960;5.500;2023-07-31T12:26:55;99839.09;;;20.01
59339;BMP280;45117;50.960;5.500;2023-07-31T12:29:22;99817.22;;;19.90
59339;BMP280;45117;50.960;5.500;2023-07-31T12:31:51;99853.94;;;20.00
59339;BMP280;45117;50.960;5.500;2023-07-31T12:34:20;99842.81;;;20.04
59339;BMP280;45117;50.960;5.500;2023-07-31T12:37:05;99765.03;;;19.60
59339;BMP280;45117;50.960;5.500;2023-07-31T12:39:41;99763.56;;;20.13
59339;BMP280;45117;50.960;5.500;2023-07-31T12:42:08;99751.53;;;20.42
59339;BMP280;45117;50.960;5.500;2023-07-31T12:44:37;99809.88;;;20.72
59339;BMP280;45117;50.960;5.500;2023-07-31T12:47:04;99754.28;;;20.47
59339;BMP280;45117;50.960;5.500;2023-07-31T12:49:31;99752.09;;;20.74
59339;BMP280;45117;50.960;5.500;2023-07-31T12:51:58;99812.44;;;21.32
59339;BMP280;45117;50.960;5.500;2023-07-31T12:54:26;99755.81;;;20.82
59339;BMP280;45117;50.960;5.500;2023-07-31T12:56:53;99827.03;;;20.95
59339;BMP280;45117;50.960;5.500;2023-07-31T12:59:19;99827.78;;;20.90
59339;BMP280;45117;50.960;5.500;2023-07-31T13:01:47;99827.44;;;20.60
59339;BMP280;45117;50.960;5.500;2023-07-31T13:04:13;99760.31;;;20.03
59339;BMP280;45117;50.960;5.500;2023-07-31T13:06:43;99821.38;;;20.28
59339;BMP280;45117;50.960;5.500;2023-07-31T13:09:10;99795.47;;;20.01
59339;BMP280;45117;50.960;5.500;2023-07-31T13:11:39;99762.19;;;19.80
59339;BMP280;45117;50.960;5.500;2023-07-31T13:14:05;99814.06;;;20.03
59339;BMP280;45117;50.960;5.500;2023-07-31T13:16:34;99820.03;;;20.07
59339;BMP280;45117;50.960;5.500;2023-07-31T13:19:03;99772.28;;;19.74
59339;BMP280;45117;50.960;5.500;2023-07-31T13:21:30;99793.66;;;19.87
59339;BMP280;45117;50.960;5.500;2023-07-31T13:23:57;99779.50;;;19.83
59339;BMP280;45117;50.960;5.500;2023-07-31T13:26:26;99793.72;;;19.98
59339;BMP280;45117;50.960;5.500;2023-07-31T13:28:54;99788.94;;;19.82
59339;BMP280;45117;50.960;5.500;2023-07-31T13:31:23;99742.41;;;19.43
59339;BMP280;45117;50.960;5.500;2023-07-31T13:33:51;99787.16;;;19.73
59339;BMP280;45117;50.960;5.500;2023-07-31T13:36:18;99833.38;;;19.99
59339;BMP280;45117;50.960;5.500;2023-07-31T13:38:46;99753.72;;;19.35
59339;BMP280;45117;50.960;5.500;2023-07-31T13:41:13;99834.78;;;19.89
59339;BMP280;45117;50.960;5.500;2023-07-31T13:43:42;99809.47;;;19.77
59339;BMP280;45117;50.960;5.500;2023-07-31T13:46:11;99816.66;;;19.80
59339;BMP280;45117;50.960;5.500;2023-07-31T13:48:37;99810.34;;;20.00
59339;BMP280;45117;50.960;5.500;2023-07-31T13:51:04;99756.97;;;19.77
59339;BMP280;45117;50.960;5.500;2023-07-31T13:53:31;99793.97;;;19.94
59339;BMP280;45117;50.960;5.500;2023-07-31T13:55:57;99817.03;;;20.05
59339;BMP280;45117;50.960;5.500;2023-07-31T13:58:24;99734.97;;;19.49
59339;BMP280;45117;50.960;5.500;2023-07-31T14:00:51;99737.28;;;19.56
59339;BMP280;45117;50.960;5.500;2023-07-31T14:03:22;99761.31;;;19.63
59339;BMP280;45117;50.960;5.500;2023-07-31T14:05:49;99767.34;;;19.73
59339;BMP280;45117;50.960;5.500;2023-07-31T14:08:17;99805.09;;;19.91
59339;BMP280;45117;50.960;5.500;2023-07-31T14:10:45;99732.25;;;19.49
59339;BMP280;45117;50.960;5.500;2023-07-31T14:13:11;99748.88;;;19.51